Weather at Tamworth Airport

Public forecast

Using degrees Celsius for public forecast. Weather courtesy of forecast.io.

Current aviation weather report (METAR) for Tamworth Airport

Retrieved 2020/10/26 14:30 UTC (0 seconds ago):

YSTW 261430Z AUTO 17007KT 9999 // SCT069 12/10 Q1017 RF000/0000

Aviation forecast (TAF) for Tamworth Airport

Retrieved 2020/10/26 12:36 UTC (2 hours ago):

TAF YSTW 261027Z 2612/2706 15010KT CAVOK